createdAt,value
2019-04-26T00:01:55.733Z,92932.14
2019-04-26T00:04:24.591Z,92932.91
2019-04-26T00:06:53.457Z,92916.27
2019-04-26T00:09:29.053Z,92909.25
2019-04-26T00:12:16.403Z,92926.48
2019-04-26T00:15:14.876Z,92919.98
2019-04-26T00:17:46.208Z,92937.17
2019-04-26T00:20:14.875Z,92934.55
2019-04-26T00:22:42.803Z,92927.41
2019-04-26T00:25:11.405Z,92942.78
2019-04-26T00:27:40.721Z,92932.64
2019-04-26T00:30:08.642Z,92935.23
2019-04-26T00:32:37.240Z,92928.40
2019-04-26T00:35:06.170Z,92930.78
2019-04-26T00:37:34.363Z,92923.16
2019-04-26T00:40:02.375Z,92910.25
2019-04-26T00:42:31.406Z,92907.45
2019-04-26T00:45:00.364Z,92909.93
2019-04-26T00:47:29.102Z,92923.16
2019-04-26T00:49:58.276Z,92929.05
2019-04-26T00:52:26.527Z,92932.78
2019-04-26T00:54:54.632Z,92930.80
2019-04-26T00:57:24.454Z,92934.05
2019-04-26T00:59:52.730Z,92925.46
2019-04-26T01:02:35.872Z,92927.50
2019-04-26T01:05:04.316Z,92935.51
2019-04-26T01:07:32.869Z,92947.59
2019-04-26T01:10:01.141Z,92958.92
2019-04-26T01:12:29.301Z,92951.80
2019-04-26T01:14:58.707Z,92934.83
2019-04-26T01:17:26.928Z,92922.17
2019-04-26T01:19:55.375Z,92928.82
2019-04-26T01:22:27.617Z,92946.95
2019-04-26T01:24:56.273Z,92949.13
2019-04-26T01:27:26.326Z,92948.38
2019-04-26T01:29:58.422Z,92947.53
2019-04-26T01:32:28.305Z,92956.34
2019-04-26T01:34:56.938Z,92954.59
2019-04-26T01:37:26.695Z,92951.39
2019-04-26T01:39:59.737Z,92955.34
2019-04-26T01:42:55.856Z,92946.48
2019-04-26T01:45:32.102Z,92949.78
2019-04-26T01:48:07.766Z,92947.23
2019-04-26T01:50:36.015Z,92945.77
2019-04-26T01:53:05.540Z,92949.61
2019-04-26T01:55:34.158Z,92955.09
2019-04-26T01:58:04.097Z,92947.63
2019-04-26T02:01:04.171Z,92945.70
2019-04-26T02:03:32.466Z,92952.61
2019-04-26T02:06:02.167Z,92952.08
2019-04-26T02:08:30.760Z,92954.89
2019-04-26T02:10:58.956Z,92956.94
2019-04-26T02:13:27.467Z,92944.78
2019-04-26T02:15:55.702Z,92949.65
2019-04-26T02:18:25.433Z,92951.59
2019-04-26T02:21:01.781Z,92954.52
2019-04-26T02:23:41.385Z,92959.42
2019-04-26T02:26:32.570Z,92955.28
2019-04-26T02:29:03.042Z,92939.95
2019-04-26T02:31:33.734Z,92956.66
2019-04-26T02:34:02.982Z,92961.95
2019-04-26T02:36:52.053Z,92977.69
2019-04-26T02:39:05.394Z,92968.77
2019-04-26T02:41:35.321Z,92954.52
2019-04-26T02:44:08.114Z,92950.52
2019-04-26T02:46:45.416Z,92947.39
2019-04-26T02:49:32.960Z,92959.97
2019-04-26T02:52:39.302Z,92974.48
2019-04-26T02:55:12.766Z,92971.35
2019-04-26T02:57:44.463Z,92973.83
2019-04-26T03:00:13.529Z,92963.23
2019-04-26T03:02:42.344Z,92955.11
2019-04-26T03:05:11.202Z,92947.61
2019-04-26T03:08:02.165Z,92959.11
2019-04-26T03:10:36.622Z,92954.73
2019-04-26T03:13:08.362Z,92947.69
2019-04-26T03:15:54.022Z,92943.16
2019-04-26T03:18:43.896Z,92944.52
2019-04-26T03:21:21.750Z,92938.83
2019-04-26T03:24:01.300Z,92935.19
2019-04-26T03:26:43.319Z,92935.92
2019-04-26T03:29:29.726Z,92943.95
2019-04-26T03:32:16.596Z,92952.32
2019-04-26T03:34:54.814Z,92952.79
2019-04-26T03:37:56.859Z,92968.57
2019-04-26T03:40:37.914Z,92973.19
2019-04-26T03:43:20.429Z,92965.64
2019-04-26T03:45:59.918Z,92966.09
2019-04-26T03:48:50.456Z,92966.39
2019-04-26T03:51:31.796Z,92969.97
2019-04-26T03:54:06.690Z,92979.05
2019-04-26T03:57:29.286Z,92975.29
2019-04-26T04:00:37.173Z,92982.75
2019-04-26T04:03:32.295Z,92978.58
2019-04-26T04:06:01.066Z,92969.22
2019-04-26T04:08:42.371Z,92957.55
2019-04-26T04:11:15.194Z,92961.83
2019-04-26T04:13:56.084Z,92976.91
2019-04-26T04:16:41.374Z,92963.05
2019-04-26T04:19:25.418Z,92971.24
2019-04-26T04:22:00.198Z,92973.09
2019-04-26T04:24:51.350Z,92972.49
2019-04-26T04:27:31.280Z,92975.83
2019-04-26T04:30:40.641Z,92985.67
2019-04-26T04:33:45.207Z,92989.16
2019-04-26T04:36:21.938Z,92984.73
2019-04-26T04:39:25.251Z,92996.37
2019-04-26T04:42:25.947Z,93008.80
2019-04-26T04:45:46.314Z,93009.52
2019-04-26T04:48:31.517Z,93013.34
2019-04-26T04:51:12.233Z,93013.88
2019-04-26T04:54:05.043Z,93012.17
2019-04-26T04:56:55.219Z,93021.52
2019-04-26T04:59:30.731Z,93025.75
2019-04-26T05:02:22.999Z,93021.56
2019-04-26T05:05:17.542Z,93027.73
2019-04-26T05:08:18.404Z,93027.78
2019-04-26T05:10:55.161Z,93027.84
2019-04-26T05:13:34.677Z,93031.55
2019-04-26T05:17:03.050Z,93033.31
2019-04-26T05:19:53.141Z,93041.64
2019-04-26T05:22:47.773Z,93054.23
2019-04-26T05:26:14.652Z,93050.96
2019-04-26T05:28:55.898Z,93059.47
2019-04-26T05:31:41.378Z,93068.76
2019-04-26T05:34:42.680Z,93077.47
2019-04-26T05:37:55.227Z,93082.01
2019-04-26T05:40:51.441Z,93091.59
2019-04-26T05:44:05.450Z,93100.05
2019-04-26T05:47:46.633Z,93090.84
2019-04-26T05:51:22.143Z,93093.32
2019-04-26T05:54:41.491Z,93106.83
2019-04-26T05:57:51.077Z,93111.73
2019-04-26T06:00:30.723Z,93106.42
2019-04-26T06:03:23.527Z,93121.62
2019-04-26T06:06:37.508Z,93122.41
2019-04-26T06:09:58.909Z,93109.27
2019-04-26T06:12:37.819Z,93114.64
2019-04-26T06:15:35.202Z,93120.70
2019-04-26T06:18:44.929Z,93129.02
2019-04-26T06:21:26.272Z,93138.95
2019-04-26T06:24:23.251Z,93139.55
2019-04-26T06:27:25.885Z,93146.23
2019-04-26T06:30:04.201Z,93147.22
2019-04-26T06:32:55.943Z,93154.57
2019-04-26T06:35:19.874Z,93159.23
2019-04-26T06:39:04.246Z,93161.21
2019-04-26T06:42:05.984Z,93171.50
2019-04-26T06:44:49.588Z,93175.89
2019-04-26T06:47:27.399Z,93180.55
2019-04-26T06:50:33.231Z,93179.41
2019-04-26T06:53:35.013Z,93175.31
2019-04-26T06:56:39.176Z,93174.59
2019-04-26T06:59:37.005Z,93170.27
2019-04-26T07:02:15.317Z,93176.31
2019-04-26T07:05:22.514Z,93165.63
2019-04-26T07:08:32.338Z,93174.28
2019-04-26T07:12:03.758Z,93178.22
2019-04-26T07:15:27.723Z,93173.91
2019-04-26T07:17:57.117Z,93179.39
2019-04-26T07:20:48.659Z,93194.61
2019-04-26T07:27:03.582Z,93196.58
2019-04-26T07:30:09.873Z,93203.27
2019-04-26T07:33:22.741Z,93220.13
2019-04-26T07:36:36.628Z,93220.64
2019-04-26T07:39:31.981Z,93229.09
2019-04-26T07:42:53.052Z,93231.92
2019-04-26T07:45:44.957Z,93236.14
2019-04-26T07:49:08.917Z,93234.70
2019-04-26T07:52:04.310Z,93232.86
2019-04-26T07:55:17.932Z,93237.25
2019-04-26T07:58:09.049Z,93235.05
2019-04-26T08:00:48.774Z,93246.44
2019-04-26T08:03:35.908Z,93258.92
2019-04-26T08:06:11.566Z,93259.45
2019-04-26T08:08:48.147Z,93248.92
2019-04-26T08:11:20.557Z,93253.03
2019-04-26T08:14:09.504Z,93253.27
2019-04-26T08:17:04.976Z,93247.67
2019-04-26T08:19:40.903Z,93256.33
2019-04-26T08:22:19.699Z,93265.58
2019-04-26T08:24:44.163Z,93271.89
2019-04-26T08:27:24.013Z,93281.17
2019-04-26T08:29:57.032Z,93283.23
2019-04-26T08:32:28.225Z,93291.27
2019-04-26T08:35:08.173Z,93296.95
2019-04-26T08:37:46.640Z,93296.51
2019-04-26T08:40:23.074Z,93301.22
2019-04-26T08:42:57.369Z,93301.88
2019-04-26T08:45:33.854Z,93298.61
2019-04-26T08:48:22.386Z,93309.83
2019-04-26T08:50:51.479Z,93321.84
2019-04-26T08:53:19.819Z,93335.17
2019-04-26T08:55:48.178Z,93342.89
2019-04-26T08:58:18.590Z,93330.63
2019-04-26T09:01:07.611Z,93347.55
2019-04-26T09:03:44.886Z,93345.00
2019-04-26T09:06:30.582Z,93337.88
2019-04-26T09:09:00.524Z,93330.01
2019-04-26T09:11:33.455Z,93318.88
2019-04-26T09:14:00.649Z,93335.64
2019-04-26T09:16:28.863Z,93340.22
2019-04-26T09:18:59.684Z,93350.33
2019-04-26T09:21:55.205Z,93357.59
2019-04-26T09:24:32.042Z,93338.58
2019-04-26T09:27:09.126Z,93340.09
2019-04-26T09:29:47.858Z,93339.86
2019-04-26T09:32:27.888Z,93332.28
2019-04-26T09:34:55.473Z,93340.58
2019-04-26T09:37:31.220Z,93351.67
2019-04-26T09:40:09.664Z,93358.52
2019-04-26T09:42:40.937Z,93361.80
2019-04-26T09:45:31.792Z,93372.72
2019-04-26T09:48:11.420Z,93374.75
2019-04-26T09:50:45.354Z,93377.95
2019-04-26T09:53:13.212Z,93376.24
2019-04-26T09:55:41.799Z,93376.70
2019-04-26T09:58:10.048Z,93376.84
2019-04-26T10:00:38.035Z,93369.06
2019-04-26T10:03:09.424Z,93366.83
2019-04-26T10:05:36.622Z,93368.21
2019-04-26T10:08:08.392Z,93356.31
2019-04-26T10:10:35.212Z,93363.36
2019-04-26T10:13:29.497Z,93354.14
2019-04-26T10:16:22.699Z,93344.09
2019-04-26T10:18:58.324Z,93339.86
2019-04-26T10:21:26.224Z,93340.98
2019-04-26T10:23:54.458Z,93349.81
2019-04-26T10:26:23.145Z,93356.75
2019-04-26T10:28:53.370Z,93350.77
2019-04-26T10:31:21.297Z,93352.14
2019-04-26T10:33:49.852Z,93365.25
2019-04-26T10:36:18.315Z,93376.19
2019-04-26T10:38:46.368Z,93375.20
2019-04-26T10:41:15.065Z,93372.58
2019-04-26T10:43:44.026Z,93371.70
2019-04-26T10:46:11.201Z,93382.38
2019-04-26T10:48:41.347Z,93383.84
2019-04-26T10:51:09.839Z,93409.81
2019-04-26T10:53:50.483Z,93402.69
2019-04-26T10:56:47.201Z,93394.86
2019-04-26T10:59:34.928Z,93376.20
2019-04-26T11:02:07.284Z,93374.17
2019-04-26T11:04:37.435Z,93369.38
2019-04-26T11:07:05.498Z,93376.04
2019-04-26T11:09:33.475Z,93385.41
2019-04-26T11:12:01.339Z,93385.25
2019-04-26T11:14:29.334Z,93384.72
2019-04-26T11:16:57.806Z,93386.59
2019-04-26T11:19:26.062Z,93379.63
2019-04-26T11:21:54.894Z,93387.66
2019-04-26T11:24:24.211Z,93400.53
2019-04-26T11:26:52.442Z,93402.19
2019-04-26T11:29:20.659Z,93403.88
2019-04-26T11:31:48.633Z,93402.50
2019-04-26T11:34:19.304Z,93401.00
2019-04-26T11:36:47.960Z,93420.69
2019-04-26T11:39:16.473Z,93424.90
2019-04-26T11:41:45.145Z,93413.41
2019-04-26T11:44:13.640Z,93416.32
2019-04-26T11:46:45.023Z,93412.23
2019-04-26T11:49:12.421Z,93403.02
2019-04-26T11:51:40.411Z,93398.72
2019-04-26T11:54:08.594Z,93399.55
2019-04-26T11:56:37.594Z,93407.30
2019-04-26T11:59:06.914Z,93399.27
2019-04-26T12:01:36.731Z,93391.91
2019-04-26T12:04:32.134Z,93382.00
2019-04-26T12:07:29.053Z,93373.87
2019-04-26T12:09:58.532Z,93386.55
2019-04-26T12:12:26.473Z,93388.59
2019-04-26T12:14:55.020Z,93394.72
2019-04-26T12:17:26.821Z,93405.07
2019-04-26T12:19:53.594Z,93407.52
2019-04-26T12:22:22.239Z,93407.52
2019-04-26T12:24:50.509Z,93406.24
2019-04-26T12:27:18.929Z,93401.85
2019-04-26T12:29:48.279Z,93410.98
2019-04-26T12:32:17.303Z,93416.95
2019-04-26T12:34:45.559Z,93417.97
2019-04-26T12:37:19.717Z,93418.19
2019-04-26T12:39:43.990Z,93424.86
2019-04-26T12:42:13.842Z,93430.00
2019-04-26T12:45:07.168Z,93437.02
2019-04-26T12:47:55.996Z,93442.67
2019-04-26T12:50:24.287Z,93453.37
2019-04-26T12:52:55.671Z,93452.30
2019-04-26T12:55:22.495Z,93451.33
2019-04-26T12:57:50.784Z,93441.27
2019-04-26T13:00:23.726Z,93439.18
2019-04-26T13:02:54.310Z,93435.02
2019-04-26T13:05:24.009Z,93433.55
2019-04-26T13:07:53.302Z,93439.66
2019-04-26T13:10:35.437Z,93455.55
2019-04-26T13:13:11.719Z,93452.00
2019-04-26T13:16:21.686Z,93467.77
2019-04-26T13:18:49.588Z,93465.66
2019-04-26T13:21:17.865Z,93470.48
2019-04-26T13:23:48.145Z,93482.95
2019-04-26T13:26:15.523Z,93496.94
2019-04-26T13:28:43.745Z,93493.46
2019-04-26T13:31:12.445Z,93488.06
2019-04-26T13:33:40.623Z,93498.83
2019-04-26T13:36:08.588Z,93486.59
2019-04-26T13:38:39.299Z,93482.91
2019-04-26T13:41:06.375Z,93499.16
2019-04-26T13:43:34.720Z,93504.59
2019-04-26T13:46:18.083Z,93501.63
2019-04-26T13:48:51.291Z,93492.42
2019-04-26T13:51:20.049Z,93498.81
2019-04-26T13:53:48.357Z,93498.18
2019-04-26T13:56:17.040Z,93498.72
2019-04-26T13:58:45.303Z,93493.67
2019-04-26T14:01:14.722Z,93499.97
2019-04-26T14:03:42.942Z,93489.42
2019-04-26T14:06:11.098Z,93490.95
2019-04-26T14:08:39.974Z,93489.04
2019-04-26T14:11:07.902Z,93491.80
2019-04-26T14:13:36.500Z,93486.02
2019-04-26T14:16:05.245Z,93471.13
2019-04-26T14:18:34.554Z,93466.33
2019-04-26T14:21:03.670Z,93468.05
2019-04-26T14:23:49.462Z,93470.42
2019-04-26T14:26:21.931Z,93467.31
2019-04-26T14:28:54.305Z,93466.42
2019-04-26T14:31:21.038Z,93463.55
2019-04-26T14:33:49.319Z,93469.14
2019-04-26T14:36:18.622Z,93474.63
2019-04-26T14:38:46.706Z,93473.71
2019-04-26T14:41:21.941Z,93471.25
2019-04-26T14:43:44.704Z,93472.17
2019-04-26T14:46:14.525Z,93470.86
2019-04-26T14:48:44.779Z,93473.20
2019-04-26T14:51:16.904Z,93480.09
2019-04-26T14:53:43.750Z,93475.31
2019-04-26T14:56:11.979Z,93477.48
2019-04-26T14:58:41.863Z,93466.27
2019-04-26T15:01:14.900Z,93470.38
2019-04-26T15:03:51.506Z,93462.03
2019-04-26T15:06:26.552Z,93457.84
2019-04-26T15:08:55.239Z,93457.26
2019-04-26T15:11:24.069Z,93442.84
2019-04-26T15:13:54.470Z,93450.80
2019-04-26T15:16:24.454Z,93448.31
2019-04-26T15:18:53.180Z,93447.88
2019-04-26T15:21:22.829Z,93459.67
2019-04-26T15:23:55.397Z,93473.12
2019-04-26T15:26:29.381Z,93480.35
2019-04-26T15:28:54.342Z,93477.85
2019-04-26T15:31:24.986Z,93472.72
2019-04-26T15:33:53.049Z,93467.70
2019-04-26T15:36:23.133Z,93463.98
2019-04-26T15:38:52.845Z,93467.47
2019-04-26T15:41:34.398Z,93464.34
2019-04-26T15:44:20.311Z,93452.47
2019-04-26T15:47:05.883Z,93457.84
2019-04-26T15:49:40.594Z,93468.80
2019-04-26T15:52:09.216Z,93483.80
2019-04-26T15:54:37.598Z,93486.70
2019-04-26T15:57:06.906Z,93484.84
2019-04-26T15:59:35.184Z,93493.25
2019-04-26T16:02:03.470Z,93479.83
2019-04-26T16:04:32.398Z,93480.06
2019-04-26T16:07:02.456Z,93488.51
2019-04-26T16:09:32.662Z,93490.41
2019-04-26T16:12:01.002Z,93488.41
2019-04-26T16:14:36.520Z,93486.30
2019-04-26T16:17:04.829Z,93484.05
2019-04-26T16:19:33.719Z,93486.78
2019-04-26T16:22:02.964Z,93487.10
2019-04-26T16:24:34.536Z,93495.51
2019-04-26T16:27:04.779Z,93498.00
2019-04-26T16:29:50.937Z,93510.79
2019-04-26T16:32:43.276Z,93513.00
2019-04-26T16:35:13.553Z,93511.64
2019-04-26T16:37:43.683Z,93506.18
2019-04-26T16:42:42.792Z,93507.08
2019-04-26T16:45:12.339Z,93506.18
2019-04-26T16:47:45.105Z,93494.71
2019-04-26T16:50:14.939Z,93489.05
2019-04-26T16:52:47.570Z,93491.67
2019-04-26T16:55:20.504Z,93495.06
2019-04-26T16:57:53.598Z,93494.33
2019-04-26T17:00:16.397Z,93493.02
2019-04-26T17:00:31.847Z,93503.59
2019-04-26T17:02:44.696Z,93498.63
2019-04-26T17:05:21.048Z,93503.56
2019-04-26T17:07:43.743Z,93501.66
2019-04-26T17:10:16.571Z,93506.33
2019-04-26T17:12:46.279Z,93506.14
2019-04-26T17:15:17.421Z,93501.38
2019-04-26T17:17:45.192Z,93506.67
2019-04-26T17:20:14.769Z,93507.77
2019-04-26T17:23:03.221Z,93505.07
2019-04-26T17:25:59.104Z,93504.82
2019-04-26T17:28:27.902Z,93512.69
2019-04-26T17:30:55.833Z,93517.27
2019-04-26T17:33:28.023Z,93513.75
2019-04-26T17:35:54.586Z,93519.82
2019-04-26T17:38:22.893Z,93522.19
2019-04-26T17:40:50.846Z,93521.09
2019-04-26T17:43:21.103Z,93520.45
2019-04-26T17:45:49.165Z,93525.28
2019-04-26T17:48:17.404Z,93523.80
2019-04-26T17:50:45.724Z,93519.17
2019-04-26T17:53:26.233Z,93524.98
2019-04-26T17:55:50.965Z,93522.97
2019-04-26T17:58:30.009Z,93522.47
2019-04-26T18:00:49.213Z,93521.64
2019-04-26T18:03:16.943Z,93523.02
2019-04-26T18:05:56.777Z,93519.45
2019-04-26T18:08:33.281Z,93522.00
2019-04-26T18:10:45.007Z,93528.03
2019-04-26T18:13:16.453Z,93530.28
2019-04-26T18:15:46.802Z,93523.69
2019-04-26T18:18:34.218Z,93527.08
2019-04-26T18:21:43.718Z,93524.61
2019-04-26T18:24:13.589Z,93527.89
2019-04-26T18:26:41.794Z,93532.46
2019-04-26T18:29:10.084Z,93533.30
2019-04-26T18:31:39.360Z,93536.33
2019-04-26T18:34:07.706Z,93535.82
2019-04-26T18:36:35.954Z,93542.83
2019-04-26T18:39:06.962Z,93545.08
2019-04-26T18:41:34.974Z,93550.58
2019-04-26T18:44:03.269Z,93550.17
2019-04-26T18:46:40.593Z,93550.52
2019-04-26T18:49:11.351Z,93546.57
2019-04-26T18:51:43.375Z,93548.38
2019-04-26T18:54:32.870Z,93552.66
2019-04-26T18:57:03.235Z,93557.49
2019-04-26T18:59:34.031Z,93554.13
2019-04-26T19:02:03.926Z,93557.98
2019-04-26T19:04:33.608Z,93553.87
2019-04-26T19:07:02.395Z,93556.41
2019-04-26T19:09:45.309Z,93555.74
2019-04-26T19:12:04.675Z,93555.25
2019-04-26T19:14:49.817Z,93555.17
2019-04-26T19:17:33.834Z,93554.09
2019-04-26T19:20:23.698Z,93555.67
2019-04-26T19:23:02.973Z,93557.31
2019-04-26T19:25:34.472Z,93552.73
2019-04-26T19:28:04.328Z,93553.95
2019-04-26T19:30:31.465Z,93553.22
2019-04-26T19:33:01.924Z,93551.09
2019-04-26T19:35:30.269Z,93555.36
2019-04-26T19:37:58.309Z,93553.86
2019-04-26T19:40:27.459Z,93551.62
2019-04-26T19:42:57.562Z,93557.94
2019-04-26T19:45:52.018Z,93564.09
2019-04-26T19:48:38.956Z,93555.17
2019-04-26T19:51:29.763Z,93562.84
2019-04-26T19:54:12.505Z,93566.85
2019-04-26T19:57:03.781Z,93567.95
2019-04-26T19:59:34.559Z,93572.44
2019-04-26T20:02:04.252Z,93575.69
2019-04-26T20:04:34.332Z,93572.52
2019-04-26T20:07:02.689Z,93575.38
2019-04-26T20:09:31.933Z,93575.15
2019-04-26T20:11:59.527Z,93575.95
2019-04-26T20:14:39.899Z,93578.24
2019-04-26T20:16:57.515Z,93578.30
2019-04-26T20:19:34.063Z,93580.25
2019-04-26T20:21:56.005Z,93580.93
2019-04-26T20:24:23.975Z,93580.17
2019-04-26T20:26:52.617Z,93583.41
2019-04-26T20:29:23.168Z,93591.34
2019-04-26T20:31:57.736Z,93587.59
2019-04-26T20:34:27.499Z,93588.97
2019-04-26T20:36:55.734Z,93590.45
2019-04-26T20:39:24.156Z,93588.73
2019-04-26T20:42:01.065Z,93591.36
2019-04-26T20:44:28.297Z,93592.78
2019-04-26T20:46:52.753Z,93590.77
2019-04-26T20:49:21.826Z,93586.63
2019-04-26T20:51:51.924Z,93586.94
2019-04-26T20:54:22.450Z,93588.05
2019-04-26T20:56:55.344Z,93585.36
2019-04-26T20:59:23.572Z,93592.33
2019-04-26T21:02:03.294Z,93586.16
2019-04-26T21:04:35.134Z,93585.50
2019-04-26T21:06:51.759Z,93582.25
2019-04-26T21:09:21.930Z,93588.55
2019-04-26T21:11:51.657Z,93588.63
2019-04-26T21:14:21.617Z,93589.41
2019-04-26T21:16:50.704Z,93590.88
2019-04-26T21:19:20.208Z,93599.88
2019-04-26T21:21:52.327Z,93600.48
2019-04-26T21:24:25.111Z,93600.47
2019-04-26T21:27:19.172Z,93599.20
2019-04-26T21:30:03.344Z,93603.70
2019-04-26T21:32:59.340Z,93599.59
2019-04-26T21:35:33.214Z,93596.20
2019-04-26T21:38:10.019Z,93609.88
2019-04-26T21:40:44.443Z,93609.17
2019-04-26T21:43:14.847Z,93606.19
2019-04-26T21:45:44.585Z,93601.60
2019-04-26T21:48:15.144Z,93605.42
2019-04-26T21:50:44.777Z,93604.22
2019-04-26T21:53:14.346Z,93606.11
2019-04-26T21:55:43.539Z,93614.52
2019-04-26T21:58:14.246Z,93621.08
2019-04-26T22:01:00.976Z,93613.44
2019-04-26T22:03:31.360Z,93620.39
2019-04-26T22:06:01.169Z,93615.59
2019-04-26T22:08:33.022Z,93618.53
2019-04-26T22:11:04.571Z,93616.30
2019-04-26T22:13:58.294Z,93616.05
2019-04-26T22:16:48.319Z,93619.95
2019-04-26T22:19:38.224Z,93618.86
2019-04-26T22:22:20.140Z,93622.41
2019-04-26T22:24:49.456Z,93620.00
2019-04-26T22:27:21.911Z,93621.27
2019-04-26T22:29:51.754Z,93619.00
2019-04-26T22:32:19.271Z,93624.57
2019-04-26T22:34:47.792Z,93623.94
2019-04-26T22:37:29.062Z,93624.02
2019-04-26T22:39:47.300Z,93620.20
2019-04-26T22:42:16.926Z,93620.97
2019-04-26T22:44:55.290Z,93616.81
2019-04-26T22:47:47.259Z,93624.46
2019-04-26T22:50:20.908Z,93625.41
2019-04-26T22:52:51.314Z,93630.52
2019-04-26T22:55:22.114Z,93626.38
2019-04-26T22:57:49.433Z,93627.25
2019-04-26T23:00:15.518Z,93627.56
2019-04-26T23:02:43.660Z,93627.84
2019-04-26T23:05:13.969Z,93628.66
2019-04-26T23:07:43.252Z,93628.02
2019-04-26T23:10:13.314Z,93632.52
2019-04-26T23:13:07.564Z,93627.99
2019-04-26T23:15:47.964Z,93627.90
2019-04-26T23:18:38.738Z,93628.52
2019-04-26T23:21:21.231Z,93630.16
2019-04-26T23:23:49.614Z,93630.22
2019-04-26T23:26:17.875Z,93627.30
2019-04-26T23:28:48.092Z,93633.48
2019-04-26T23:31:16.590Z,93629.11
2019-04-26T23:33:46.245Z,93633.81
2019-04-26T23:36:18.360Z,93629.27
2019-04-26T23:38:45.900Z,93626.42
2019-04-26T23:41:14.702Z,93631.58
2019-04-26T23:43:45.595Z,93627.81
2019-04-26T23:46:14.777Z,93634.39
2019-04-26T23:48:48.822Z,93634.57
2019-04-26T23:51:14.994Z,93635.08
2019-04-26T23:53:44.087Z,93638.52
2019-04-26T23:56:16.181Z,93636.40
2019-04-26T23:58:44.044Z,93631.75
